Time;durP1;ratioP1;P1;durP2;ratioP2;P2;SDS_P1;SDS_P2;PMS_P1;PMS_P2;Temp;Humidity;BMP_temperature;BMP_pressure;BME280_temperature;BME280_humidity;BME280_pressure;Samples;Min_cycle;Max_cycle;Signal;HPM_P1;HPM_P2
2021/01/20 00:01:16;;;;;;;4.10;3.43;;;2.70;99.90;;;;;;5052782;28;20210;-66
2021/01/20 00:03:42;;;;;;;5.50;3.13;;;2.70;99.90;;;;;;5045263;28;20179;-68
2021/01/20 00:06:08;;;;;;;6.70;3.60;;;2.60;99.90;;;;;;5046894;28;20462;-67
2021/01/20 00:08:33;;;;;;;4.10;3.20;;;2.70;99.90;;;;;;5052284;28;20199;-67
2021/01/20 00:10:59;;;;;;;4.60;3.70;;;2.70;99.90;;;;;;5052555;28;20182;-66
2021/01/20 00:13:25;;;;;;;5.33;3.40;;;2.70;99.90;;;;;;5052406;28;20207;-66
2021/01/20 00:15:50;;;;;;;5.77;3.67;;;2.70;99.90;;;;;;5052240;28;20202;-67
2021/01/20 00:18:16;;;;;;;6.43;3.93;;;2.70;99.90;;;;;;5052215;28;20278;-65
2021/01/20 00:20:42;;;;;;;5.00;3.07;;;2.60;99.90;;;;;;5043346;28;20179;-66
2021/01/20 00:23:07;;;;;;;5.83;3.77;;;2.60;99.90;;;;;;5033459;28;20974;-67
2021/01/20 00:25:33;;;;;;;3.83;3.20;;;2.60;99.90;;;;;;5045952;28;20198;-65
2021/01/20 00:27:58;;;;;;;6.57;4.20;;;2.70;99.90;;;;;;5046710;28;20202;-65
2021/01/20 00:30:24;;;;;;;7.43;3.40;;;2.70;99.90;;;;;;5038446;28;20519;-68
2021/01/20 00:32:50;;;;;;;4.93;3.47;;;2.60;99.90;;;;;;5048723;28;20236;-65
2021/01/20 00:35:22;;;;;;;6.90;4.17;;;2.60;99.90;;;;;;5046170;28;20259;-66
2021/01/20 00:37:49;;;;;;;5.43;3.80;;;2.60;99.90;;;;;;5051077;28;20183;-65
2021/01/20 00:40:15;;;;;;;5.87;3.77;;;2.60;99.90;;;;;;5051936;28;20815;-67
2021/01/20 00:42:41;;;;;;;5.57;3.73;;;2.60;99.90;;;;;;5051784;28;20417;-68
2021/01/20 00:45:07;;;;;;;4.90;3.57;;;2.60;99.90;;;;;;5051775;28;20517;-67
2021/01/20 00:47:32;;;;;;;5.77;3.47;;;2.50;99.90;;;;;;5051307;28;20603;-66
2021/01/20 00:49:58;;;;;;;4.97;3.60;;;2.50;99.90;;;;;;5051740;28;20516;-66
2021/01/20 00:52:24;;;;;;;5.67;3.70;;;2.50;99.90;;;;;;5033567;28;20214;-66
2021/01/20 00:54:49;;;;;;;5.30;3.60;;;2.40;99.90;;;;;;5051152;28;20175;-66
2021/01/20 00:57:15;;;;;;;4.50;3.43;;;2.40;99.90;;;;;;5051570;28;20182;-67
2021/01/20 00:59:40;;;;;;;5.13;3.27;;;2.40;99.90;;;;;;5051305;28;20229;-67
2021/01/20 01:02:06;;;;;;;5.57;3.93;;;2.30;99.90;;;;;;5051399;28;20183;-67
2021/01/20 01:04:32;;;;;;;4.20;3.23;;;2.30;99.90;;;;;;5039024;28;20183;-67
2021/01/20 01:06:57;;;;;;;5.23;3.43;;;2.30;99.90;;;;;;5050683;28;20191;-68
2021/01/20 01:09:23;;;;;;;4.30;3.13;;;2.20;99.90;;;;;;5046582;28;20457;-67
2021/01/20 01:11:49;;;;;;;3.40;2.73;;;2.30;99.90;;;;;;5040391;28;20171;-66
2021/01/20 01:14:14;;;;;;;4.13;3.27;;;2.30;99.90;;;;;;5050995;28;20171;-67
2021/01/20 01:16:40;;;;;;;3.90;3.30;;;2.20;99.90;;;;;;5039395;28;20171;-67
2021/01/20 01:19:06;;;;;;;6.23;3.67;;;2.20;99.90;;;;;;5032386;28;20176;-65
2021/01/20 01:21:32;;;;;;;5.33;3.20;;;2.30;99.90;;;;;;5039819;28;20693;-66
2021/01/20 01:23:57;;;;;;;5.00;3.20;;;2.20;99.90;;;;;;5050669;28;20187;-67
2021/01/20 01:26:23;;;;;;;5.10;3.70;;;2.00;99.90;;;;;;5046897;28;20541;-66
2021/01/20 01:28:49;;;;;;;4.67;3.80;;;2.00;99.90;;;;;;5050954;28;20203;-67
2021/01/20 01:31:14;;;;;;;3.97;3.43;;;1.90;99.90;;;;;;5050767;28;20563;-67
2021/01/20 01:33:40;;;;;;;7.33;4.13;;;2.00;99.90;;;;;;5050892;28;20302;-67
2021/01/20 01:36:06;;;;;;;11.23;4.10;;;2.00;99.90;;;;;;5050675;28;20167;-66
2021/01/20 01:38:31;;;;;;;5.17;3.57;;;2.00;99.90;;;;;;5050968;28;20648;-67
2021/01/20 01:40:57;;;;;;;4.73;3.60;;;2.00;99.90;;;;;;5050679;28;20616;-67
2021/01/20 01:43:23;;;;;;;4.03;3.23;;;2.00;99.90;;;;;;5031350;28;20175;-66
2021/01/20 01:45:49;;;;;;;5.03;3.53;;;2.00;99.90;;;;;;5050561;28;20244;-67
2021/01/20 01:48:15;;;;;;;6.50;3.80;;;2.00;99.90;;;;;;5050128;28;20493;-67
2021/01/20 01:50:41;;;;;;;6.87;4.13;;;3.30;99.90;;;;;;5050518;28;20478;-67
2021/01/20 01:53:09;;;;;;;5.80;3.30;;;1.90;99.90;;;;;;5050623;28;20495;-68
2021/01/20 01:55:36;;;;;;;5.30;3.53;;;1.90;99.90;;;;;;5050623;28;20175;-67
2021/01/20 01:58:02;;;;;;;5.13;3.20;;;1.90;99.90;;;;;;5050590;28;20445;-68
2021/01/20 02:00:27;;;;;;;5.30;3.37;;;1.80;99.90;;;;;;5049422;28;20849;-69
2021/01/20 02:02:53;;;;;;;4.17;2.77;;;1.90;99.90;;;;;;5042967;28;20183;-69
2021/01/20 02:05:19;;;;;;;4.60;3.13;;;1.90;99.90;;;;;;5046529;28;20632;-67
2021/01/20 02:07:45;;;;;;;4.63;2.70;;;2.00;99.90;;;;;;5050432;28;20187;-68
2021/01/20 02:10:12;;;;;;;5.13;2.77;;;2.00;99.90;;;;;;5050481;28;20171;-69
2021/01/20 02:13:13;;;;;;;3.23;2.27;;;2.00;99.90;;;;;;5050589;28;20410;-66
2021/01/20 02:15:43;;;;;;;5.03;2.77;;;2.20;99.90;;;;;;5050376;28;20406;-67
2021/01/20 02:18:19;;;;;;;4.13;2.40;;;2.30;99.90;;;;;;5048584;28;20737;-67
2021/01/20 02:20:50;;;;;;;3.67;2.40;;;2.40;99.90;;;;;;5042745;28;20413;-68
2021/01/20 02:23:18;;;;;;;3.03;2.37;;;2.70;99.90;;;;;;5047497;28;20905;-66
2021/01/20 02:26:01;;;;;;;2.40;2.13;;;2.80;99.90;;;;;;5033099;28;20472;-66
2021/01/20 02:28:53;;;;;;;3.77;2.40;;;3.00;99.90;;;;;;5028265;28;20812;-66
2021/01/20 02:31:22;;;;;;;4.53;2.37;;;3.10;99.90;;;;;;5050039;28;20757;-68
2021/01/20 02:33:51;;;;;;;3.03;2.10;;;3.10;99.90;;;;;;5044521;28;20410;-68
2021/01/20 02:36:18;;;;;;;2.73;1.83;;;3.10;99.90;;;;;;5050177;28;20923;-67
2021/01/20 02:38:45;;;;;;;4.17;2.50;;;3.10;99.90;;;;;;5047351;28;20524;-68
2021/01/20 02:41:23;;;;;;;3.83;2.37;;;3.10;99.90;;;;;;5037062;28;20892;-67
2021/01/20 02:43:48;;;;;;;5.73;3.10;;;3.10;99.90;;;;;;5029492;28;20409;-68
2021/01/20 02:46:14;;;;;;;3.50;2.47;;;3.20;99.90;;;;;;5050187;28;20413;-69
2021/01/20 02:48:40;;;;;;;3.77;2.53;;;3.20;99.90;;;;;;5049978;28;20205;-68
2021/01/20 02:51:08;;;;;;;3.73;2.10;;;3.20;99.90;;;;;;5050109;28;20179;-68
2021/01/20 02:53:34;;;;;;;4.50;3.00;;;3.20;99.90;;;;;;5036573;28;20219;-67
2021/01/20 02:56:05;;;;;;;4.40;2.13;;;3.20;99.90;;;;;;5041280;28;20817;-66
2021/01/20 02:58:32;;;;;;;3.77;2.60;;;3.20;99.90;;;;;;5038561;28;20317;-68
2021/01/20 03:01:03;;;;;;;4.27;3.00;;;3.30;99.90;;;;;;5034822;28;20504;-67
2021/01/20 03:03:31;;;;;;;4.27;2.63;;;3.20;99.90;;;;;;5052602;28;20410;-67
2021/01/20 03:05:57;;;;;;;4.97;3.00;;;3.10;99.90;;;;;;5053366;28;20445;-68
2021/01/20 03:08:25;;;;;;;5.30;3.00;;;3.10;99.90;;;;;;5053631;28;20449;-67
2021/01/20 03:10:51;;;;;;;4.07;2.43;;;3.00;99.90;;;;;;5036177;28;20411;-67
2021/01/20 03:13:18;;;;;;;4.63;2.77;;;3.10;99.90;;;;;;5036236;28;20754;-67
2021/01/20 03:15:44;;;;;;;5.57;2.07;;;3.20;99.90;;;;;;5044544;28;20940;-68
2021/01/20 03:18:12;;;;;;;4.87;2.70;;;3.30;99.90;;;;;;5049371;28;20810;-68
2021/01/20 03:20:38;;;;;;;4.77;3.00;;;3.30;99.90;;;;;;5053443;28;20421;-67
2021/01/20 03:23:05;;;;;;;3.93;2.70;;;3.40;99.90;;;;;;5053191;28;20807;-67
2021/01/20 03:25:31;;;;;;;3.50;2.60;;;3.30;99.90;;;;;;5053204;28;20217;-68
2021/01/20 03:27:56;;;;;;;2.97;2.60;;;3.40;99.90;;;;;;5053102;28;20449;-66
2021/01/20 03:30:22;;;;;;;4.53;2.53;;;3.40;99.90;;;;;;5041902;28;20175;-68
2021/01/20 03:32:48;;;;;;;3.43;2.60;;;3.40;99.90;;;;;;5052906;28;20179;-66
2021/01/20 03:35:14;;;;;;;3.63;2.43;;;3.40;99.90;;;;;;5053121;28;20221;-69
2021/01/20 03:37:40;;;;;;;4.60;2.63;;;3.40;99.90;;;;;;5053149;28;20206;-69
2021/01/20 03:40:07;;;;;;;3.27;2.57;;;3.40;99.90;;;;;;5053242;28;20457;-67
2021/01/20 03:42:33;;;;;;;3.77;2.27;;;3.40;99.90;;;;;;5052943;28;20187;-67
2021/01/20 03:44:59;;;;;;;3.17;2.30;;;3.80;99.90;;;;;;5052859;28;20814;-68
2021/01/20 03:47:24;;;;;;;4.17;2.63;;;3.40;99.90;;;;;;5052754;28;20645;-67
2021/01/20 03:49:50;;;;;;;3.47;2.60;;;3.30;99.90;;;;;;5037389;28;20175;-69
2021/01/20 03:52:16;;;;;;;3.50;2.60;;;3.20;99.90;;;;;;5050760;28;20214;-68
2021/01/20 03:54:41;;;;;;;4.33;2.90;;;3.20;99.90;;;;;;5041420;28;20246;-67
2021/01/20 03:57:07;;;;;;;4.77;2.60;;;3.20;99.90;;;;;;5038413;28;20179;-67
2021/01/20 03:59:32;;;;;;;5.40;3.07;;;3.10;99.90;;;;;;5052381;28;20183;-69
2021/01/20 04:02:06;;;;;;;3.87;2.53;;;3.10;99.90;;;;;;5052457;28;20190;-66
2021/01/20 04:04:32;;;;;;;2.90;2.20;;;3.00;99.90;;;;;;5052225;28;20301;-69
2021/01/20 04:07:03;;;;;;;3.50;2.50;;;3.00;99.90;;;;;;5052448;28;20410;-67
2021/01/20 04:09:34;;;;;;;3.13;2.50;;;2.90;99.90;;;;;;5052157;28;20446;-67
2021/01/20 04:12:00;;;;;;;3.40;2.63;;;2.90;99.90;;;;;;5050626;28;20915;-68
2021/01/20 04:14:26;;;;;;;4.40;2.80;;;2.90;99.90;;;;;;5052662;28;20425;-67
2021/01/20 04:16:51;;;;;;;4.93;3.30;;;2.80;99.90;;;;;;5052094;28;20206;-69
2021/01/20 04:19:17;;;;;;;3.17;2.63;;;2.80;99.90;;;;;;5050830;28;20185;-68
2021/01/20 04:21:42;;;;;;;3.10;2.47;;;2.70;99.90;;;;;;5052162;28;20175;-67
2021/01/20 04:24:10;;;;;;;5.13;2.87;;;2.80;99.90;;;;;;5049278;28;20225;-68
2021/01/20 04:26:36;;;;;;;4.40;2.90;;;2.80;99.90;;;;;;5034020;28;20183;-67
2021/01/20 04:29:01;;;;;;;5.90;2.70;;;2.90;99.90;;;;;;5051613;28;20457;-69
2021/01/20 04:31:27;;;;;;;5.23;3.20;;;2.80;99.90;;;;;;5051929;28;20194;-67
2021/01/20 04:33:52;;;;;;;5.67;3.03;;;2.90;99.90;;;;;;5051723;28;20185;-68
2021/01/20 04:36:18;;;;;;;4.43;2.80;;;2.90;99.90;;;;;;5051826;28;20533;-67
2021/01/20 04:38:43;;;;;;;3.83;2.20;;;3.00;99.90;;;;;;5051869;28;20681;-66
2021/01/20 04:41:09;;;;;;;4.07;2.30;;;3.10;99.90;;;;;;5051646;28;20186;-67
2021/01/20 04:43:35;;;;;;;5.50;3.00;;;3.20;99.90;;;;;;5051601;28;20182;-68
2021/01/20 04:46:01;;;;;;;3.93;2.63;;;3.20;99.90;;;;;;5051668;28;20289;-68
2021/01/20 04:48:31;;;;;;;3.50;2.53;;;3.30;99.90;;;;;;5051707;28;20626;-68
2021/01/20 04:50:59;;;;;;;4.63;2.90;;;3.30;99.90;;;;;;5051552;28;20505;-67
2021/01/20 04:53:26;;;;;;;3.07;2.43;;;3.20;99.90;;;;;;5050735;28;20456;-69
2021/01/20 04:55:55;;;;;;;3.37;2.50;;;3.30;99.90;;;;;;5044083;28;20445;-67
2021/01/20 04:58:21;;;;;;;3.47;2.60;;;3.30;99.90;;;;;;5036450;28;20773;-68
2021/01/20 05:00:47;;;;;;;4.97;2.57;;;3.30;99.90;;;;;;5040375;28;20423;-66
2021/01/20 05:03:13;;;;;;;3.37;2.57;;;3.30;99.90;;;;;;5031629;28;20427;-68
2021/01/20 05:05:38;;;;;;;4.10;2.70;;;3.40;99.90;;;;;;5043888;28;20570;-67
2021/01/20 05:08:05;;;;;;;3.37;2.60;;;3.40;99.90;;;;;;5049674;28;20195;-67
2021/01/20 05:10:31;;;;;;;3.60;2.63;;;3.40;99.90;;;;;;5035330;28;20171;-67
2021/01/20 05:12:57;;;;;;;5.70;2.60;;;3.40;99.90;;;;;;5039713;28;20422;-67
2021/01/20 05:15:31;;;;;;;3.83;2.37;;;3.40;99.90;;;;;;5037044;28;20183;-66
2021/01/20 05:18:01;;;;;;;3.07;2.77;;;3.40;99.90;;;;;;5050176;28;20495;-68
2021/01/20 05:20:30;;;;;;;5.47;2.83;;;3.40;99.90;;;;;;5038311;28;20413;-68
2021/01/20 05:23:01;;;;;;;3.13;2.57;;;3.40;99.90;;;;;;5050329;28;20418;-68
2021/01/20 05:25:34;;;;;;;4.47;2.80;;;3.40;99.90;;;;;;5050952;28;20441;-68
2021/01/20 05:28:23;;;;;;;4.80;2.93;;;3.30;99.90;;;;;;5048964;28;20457;-69
2021/01/20 05:31:00;;;;;;;4.80;3.07;;;3.20;99.90;;;;;;5048580;28;20418;-67
2021/01/20 05:33:33;;;;;;;4.60;3.00;;;3.10;99.90;;;;;;5031091;28;20418;-69
2021/01/20 05:36:07;;;;;;;5.30;3.83;;;3.00;99.90;;;;;;5037348;28;21549;-68
2021/01/20 05:38:37;;;;;;;5.27;3.43;;;3.00;99.90;;;;;;5051169;28;20946;-68
2021/01/20 05:41:21;;;;;;;6.37;4.33;;;3.10;99.90;;;;;;5049765;28;20417;-69
2021/01/20 05:43:54;;;;;;;5.77;3.53;;;3.10;99.90;;;;;;5050870;28;20413;-69
2021/01/20 05:46:34;;;;;;;3.80;3.00;;;3.00;99.90;;;;;;5050153;28;20991;-67
2021/01/20 05:49:00;;;;;;;3.60;2.57;;;3.10;99.90;;;;;;5049830;28;20517;-67
2021/01/20 05:51:36;;;;;;;6.70;2.50;;;3.20;99.90;;;;;;5050878;28;20549;-67
2021/01/20 05:54:03;;;;;;;2.30;2.10;;;3.30;99.90;;;;;;5045372;28;20219;-67
2021/01/20 05:56:30;;;;;;;2.57;2.27;;;3.40;99.90;;;;;;5032528;28;20410;-67
2021/01/20 05:58:56;;;;;;;4.37;3.00;;;3.40;99.90;;;;;;5045742;28;20944;-66
2021/01/20 06:01:23;;;;;;;4.30;2.50;;;3.40;99.90;;;;;;5037736;28;20430;-66
2021/01/20 06:03:49;;;;;;;3.37;2.37;;;3.40;99.90;;;;;;5044862;28;20707;-66
2021/01/20 06:06:18;;;;;;;4.83;2.50;;;3.40;99.90;;;;;;5039071;28;20737;-67
2021/01/20 06:08:44;;;;;;;4.37;2.40;;;3.50;99.90;;;;;;5050695;28;20997;-67
2021/01/20 06:11:11;;;;;;;4.83;2.43;;;3.40;99.90;;;;;;5032152;28;20874;-68
2021/01/20 06:13:37;;;;;;;3.97;2.50;;;3.50;99.90;;;;;;5046047;28;20413;-67
2021/01/20 06:16:35;;;;;;;3.33;2.30;;;3.50;99.90;;;;;;5040640;28;20409;-68
2021/01/20 06:19:08;;;;;;;4.43;2.30;;;3.50;99.90;;;;;;5039014;28;20919;-68
2021/01/20 06:21:35;;;;;;;3.67;2.10;;;3.50;99.90;;;;;;5041469;28;20924;-67
2021/01/20 06:24:08;;;;;;;3.40;2.43;;;3.60;99.90;;;;;;5046394;28;20424;-67
2021/01/20 06:26:48;;;;;;;2.97;2.60;;;3.60;99.90;;;;;;5046066;28;20442;-65
2021/01/20 06:29:16;;;;;;;3.33;1.77;;;3.60;99.90;;;;;;5030173;28;20587;-65
2021/01/20 06:31:44;;;;;;;2.67;2.27;;;3.70;99.90;;;;;;5045429;28;20418;-65
2021/01/20 06:34:11;;;;;;;2.37;1.90;;;3.70;99.90;;;;;;5038722;28;20880;-67
2021/01/20 06:36:39;;;;;;;3.17;2.13;;;3.70;99.90;;;;;;5044330;28;21608;-66
2021/01/20 06:39:30;;;;;;;3.97;2.50;;;3.80;99.90;;;;;;5036637;28;20450;-67
2021/01/20 06:41:56;;;;;;;3.17;1.87;;;3.80;99.90;;;;;;5053024;28;20406;-66
2021/01/20 06:44:22;;;;;;;2.90;1.37;;;3.80;99.90;;;;;;5054242;28;20421;-67
2021/01/20 06:46:57;;;;;;;1.83;1.53;;;4.00;99.90;;;;;;5054308;28;20750;-66
2021/01/20 06:49:30;;;;;;;4.37;1.57;;;4.10;99.90;;;;;;5054182;28;20444;-66
2021/01/20 06:52:15;;;;;;;2.87;1.90;;;4.20;99.90;;;;;;5053244;28;20417;-66
2021/01/20 06:54:46;;;;;;;2.03;1.67;;;4.20;99.90;;;;;;5033801;28;20465;-67
2021/01/20 06:57:35;;;;;;;1.70;1.50;;;4.30;99.90;;;;;;5033801;28;20417;-67
2021/01/20 07:00:09;;;;;;;2.00;1.80;;;4.40;99.90;;;;;;5033964;28;20418;-66
2021/01/20 07:02:35;;;;;;;2.75;1.75;;;4.40;99.90;;;;;;5033622;28;20442;-67
2021/01/20 07:05:03;;;;;;;2.10;1.80;;;4.40;99.90;;;;;;5033513;28;20249;-65
2021/01/20 07:08:02;;;;;;;2.27;1.70;;;4.30;99.90;;;;;;5033712;28;20506;-64
2021/01/20 07:10:52;;;;;;;2.83;1.87;;;4.30;99.90;;;;;;4983266;28;20431;-65
2021/01/20 07:13:20;;;;;;;2.77;2.03;;;4.20;99.90;;;;;;5032395;28;20419;-66
2021/01/20 07:15:48;;;;;;;2.67;1.93;;;4.10;99.90;;;;;;5033555;28;20419;-67
2021/01/20 07:18:15;;;;;;;3.00;2.10;;;4.00;99.90;;;;;;5033287;28;20418;-66
2021/01/20 07:20:42;;;;;;;2.73;1.97;;;3.90;99.90;;;;;;5033694;28;20429;-65
2021/01/20 07:23:09;;;;;;;2.00;1.70;;;3.80;99.90;;;;;;5033466;28;20892;-65
2021/01/20 07:25:35;;;;;;;3.00;1.90;;;3.80;99.90;;;;;;5033518;28;20414;-66
2021/01/20 07:28:01;;;;;;;3.63;2.10;;;3.70;99.90;;;;;;5033387;28;20811;-64
2021/01/20 07:30:27;;;;;;;2.73;1.70;;;3.70;99.90;;;;;;5033177;28;20418;-65
2021/01/20 07:32:53;;;;;;;3.10;2.00;;;3.70;99.90;;;;;;5033519;28;20184;-65
2021/01/20 07:35:21;;;;;;;4.93;2.17;;;3.70;99.90;;;;;;5032969;28;20414;-66
2021/01/20 07:37:57;;;;;;;3.10;1.83;;;3.80;99.90;;;;;;5033374;28;20267;-65
2021/01/20 07:40:28;;;;;;;2.13;1.60;;;3.70;99.90;;;;;;5032821;28;20433;-65
2021/01/20 07:42:53;;;;;;;2.90;2.10;;;3.80;99.90;;;;;;5033443;28;20418;-64
2021/01/20 07:45:29;;;;;;;5.27;1.80;;;3.80;99.90;;;;;;5033088;28;20904;-64
2021/01/20 07:47:55;;;;;;;1.90;1.50;;;3.70;99.90;;;;;;5033485;28;20272;-67
2021/01/20 07:50:21;;;;;;;2.50;1.63;;;3.80;99.90;;;;;;5032864;28;20414;-67
2021/01/20 07:52:47;;;;;;;2.70;1.63;;;3.80;99.90;;;;;;5032578;28;20208;-66
2021/01/20 07:55:16;;;;;;;2.10;1.70;;;3.90;99.90;;;;;;5033009;28;20831;-66
2021/01/20 07:57:42;;;;;;;2.97;2.00;;;4.00;99.90;;;;;;5032676;28;20255;-63
2021/01/20 08:00:09;;;;;;;3.37;1.90;;;4.00;99.90;;;;;;5035783;28;20500;-65
2021/01/20 08:02:47;;;;;;;2.67;1.90;;;4.00;99.90;;;;;;5048696;28;20320;-65
2021/01/20 08:05:14;;;;;;;4.07;2.00;;;4.10;99.90;;;;;;5045673;28;20463;-64
2021/01/20 08:07:39;;;;;;;4.90;1.60;;;4.10;99.90;;;;;;5052598;28;20463;-65
2021/01/20 08:10:19;;;;;;;2.40;1.70;;;4.10;99.90;;;;;;5051335;28;20410;-65
2021/01/20 08:12:46;;;;;;;1.80;1.47;;;4.20;99.90;;;;;;5052717;28;20253;-67
2021/01/20 08:15:14;;;;;;;3.60;2.33;;;4.30;99.90;;;;;;5052455;28;20456;-68
2021/01/20 08:17:40;;;;;;;2.97;1.60;;;4.30;99.90;;;;;;5047523;28;20510;-65
2021/01/20 08:20:08;;;;;;;3.63;2.10;;;4.40;99.90;;;;;;5032375;28;20417;-67
2021/01/20 08:22:33;;;;;;;2.53;2.13;;;4.20;99.90;;;;;;5038071;28;20811;-67
2021/01/20 08:24:59;;;;;;;5.03;2.27;;;4.10;99.90;;;;;;5041824;28;20413;-67
2021/01/20 08:27:27;;;;;;;4.43;2.50;;;4.10;99.90;;;;;;5049295;28;20176;-67
2021/01/20 08:29:54;;;;;;;4.80;2.40;;;4.00;99.90;;;;;;5050976;28;20182;-66
2021/01/20 08:32:20;;;;;;;5.13;3.47;;;4.00;99.90;;;;;;5051667;28;20775;-65
2021/01/20 08:34:48;;;;;;;5.70;3.70;;;3.90;99.90;;;;;;5052572;28;20424;-67
2021/01/20 08:37:18;;;;;;;7.93;3.70;;;4.00;99.90;;;;;;5052003;28;20175;-66
2021/01/20 08:39:59;;;;;;;7.40;4.57;;;4.00;99.90;;;;;;5050680;28;20412;-67
2021/01/20 08:42:38;;;;;;;15.67;8.27;;;4.10;99.90;;;;;;5049224;28;20771;-66
2021/01/20 08:45:07;;;;;;;14.97;7.07;;;4.10;99.90;;;;;;5035086;28;20406;-66
2021/01/20 08:47:43;;;;;;;13.73;7.67;;;4.10;99.90;;;;;;5045069;28;20497;-68
2021/01/20 08:50:09;;;;;;;12.07;7.30;;;4.20;99.90;;;;;;5051793;28;20463;-67
2021/01/20 08:52:51;;;;;;;15.57;7.60;;;4.20;99.90;;;;;;5049006;28;20410;-67
2021/01/20 08:55:39;;;;;;;15.43;7.93;;;4.20;99.90;;;;;;5043500;28;20417;-67
2021/01/20 08:58:24;;;;;;;11.20;7.07;;;4.20;99.90;;;;;;5050974;28;20579;-65
2021/01/20 09:00:57;;;;;;;11.67;6.23;;;4.20;99.90;;;;;;5051651;28;20505;-68
2021/01/20 09:03:24;;;;;;;10.63;5.40;;;4.30;99.90;;;;;;5051573;28;20414;-65
2021/01/20 09:05:52;;;;;;;5.47;3.50;;;4.40;99.90;;;;;;5051162;28;20812;-67
2021/01/20 09:08:18;;;;;;;4.07;2.47;;;4.40;99.90;;;;;;5051321;28;20460;-66
2021/01/20 09:10:45;;;;;;;3.47;2.40;;;4.60;99.90;;;;;;5050020;28;20414;-67
2021/01/20 09:13:11;;;;;;;3.50;2.40;;;4.70;99.90;;;;;;5051616;28;20445;-65
2021/01/20 09:15:37;;;;;;;2.70;1.97;;;4.70;99.90;;;;;;5051078;28;20420;-66
2021/01/20 09:18:06;;;;;;;5.10;2.60;;;4.80;99.90;;;;;;5051398;28;20422;-65
2021/01/20 09:20:33;;;;;;;5.70;2.93;;;4.90;99.90;;;;;;5046292;28;20183;-66
2021/01/20 09:22:59;;;;;;;7.83;3.10;;;5.00;99.90;;;;;;5038936;28;20427;-65
2021/01/20 09:25:24;;;;;;;5.23;2.90;;;5.00;99.90;;;;;;5051463;28;20414;-65
2021/01/20 09:27:50;;;;;;;4.20;2.80;;;5.10;99.90;;;;;;5051153;28;20583;-65
2021/01/20 09:30:16;;;;;;;6.40;2.53;;;5.10;99.90;;;;;;5038541;28;20187;-64
2021/01/20 09:32:41;;;;;;;4.23;2.60;;;5.30;99.90;;;;;;5051170;28;20186;-64
2021/01/20 09:35:10;;;;;;;3.13;2.43;;;5.30;99.90;;;;;;5050890;28;20517;-65
2021/01/20 09:37:35;;;;;;;3.03;2.20;;;5.30;99.90;;;;;;5041517;28;20171;-64
2021/01/20 09:40:03;;;;;;;3.17;2.27;;;5.50;99.90;;;;;;5042477;28;20412;-66
2021/01/20 09:42:29;;;;;;;7.73;2.40;;;5.70;99.90;;;;;;5035172;28;20310;-66
2021/01/20 09:44:54;;;;;;;4.90;2.70;;;5.70;99.90;;;;;;5031558;28;20512;-66
2021/01/20 09:47:20;;;;;;;2.30;1.80;;;5.70;99.90;;;;;;5050786;28;20179;-64
2021/01/20 09:49:45;;;;;;;5.97;2.80;;;5.80;99.90;;;;;;5051341;28;20178;-65
2021/01/20 09:52:15;;;;;;;3.30;2.20;;;5.90;99.90;;;;;;5049583;28;20179;-65
2021/01/20 09:54:42;;;;;;;5.50;2.30;;;6.00;99.90;;;;;;5032213;28;20211;-64
2021/01/20 09:57:07;;;;;;;3.90;2.30;;;6.10;99.90;;;;;;5030856;28;20773;-64
2021/01/20 09:59:33;;;;;;;2.83;2.30;;;6.10;99.90;;;;;;5030977;28;20475;-65
2021/01/20 10:01:58;;;;;;;5.37;2.10;;;6.10;99.90;;;;;;5039652;28;20269;-67
2021/01/20 10:04:24;;;;;;;6.40;1.87;;;6.20;99.90;;;;;;5050713;28;20700;-65
2021/01/20 10:06:56;;;;;;;4.50;2.80;;;6.30;99.90;;;;;;5042111;28;20242;-66
2021/01/20 10:09:21;;;;;;;3.37;2.33;;;6.30;99.90;;;;;;5051905;28;20210;-64
2021/01/20 10:11:49;;;;;;;2.87;2.07;;;6.30;99.90;;;;;;5054920;28;20471;-65
2021/01/20 10:14:18;;;;;;;3.37;2.40;;;6.30;99.90;;;;;;5054979;28;20586;-65
2021/01/20 10:16:46;;;;;;;4.83;2.50;;;6.40;99.90;;;;;;5054504;28;20432;-65
2021/01/20 10:19:16;;;;;;;5.80;2.13;;;6.40;99.90;;;;;;5054729;28;20414;-64
2021/01/20 10:21:42;;;;;;;3.43;2.20;;;6.50;99.90;;;;;;5054489;28;20414;-67
2021/01/20 10:24:09;;;;;;;5.27;2.50;;;6.50;99.90;;;;;;5054577;28;20759;-65
2021/01/20 10:26:35;;;;;;;4.57;2.43;;;6.50;99.90;;;;;;5045565;28;20192;-63
2021/01/20 10:29:02;;;;;;;5.10;2.50;;;6.50;99.90;;;;;;5045793;28;20510;-66
2021/01/20 10:31:32;;;;;;;4.30;2.30;;;6.60;99.90;;;;;;5037328;28;20418;-65
2021/01/20 10:33:58;;;;;;;4.27;2.83;;;6.60;99.90;;;;;;5042129;28;20413;-66
2021/01/20 10:36:24;;;;;;;5.00;3.90;;;6.60;99.90;;;;;;5054589;28;20444;-66
2021/01/20 10:38:50;;;;;;;5.97;2.73;;;6.60;99.90;;;;;;5054393;28;20472;-65
2021/01/20 10:41:18;;;;;;;4.10;2.83;;;6.60;99.90;;;;;;5036488;28;20258;-67
2021/01/20 10:43:44;;;;;;;5.97;2.07;;;6.70;99.90;;;;;;5054367;28;20175;-66
2021/01/20 10:46:10;;;;;;;7.67;3.13;;;6.70;99.90;;;;;;5054179;28;20774;-67
2021/01/20 10:48:35;;;;;;;5.07;2.30;;;6.80;99.90;;;;;;5054167;28;20449;-67
2021/01/20 10:51:01;;;;;;;4.47;2.00;;;6.90;99.90;;;;;;5053707;28;20174;-65
2021/01/20 10:53:27;;;;;;;3.50;2.37;;;6.90;99.90;;;;;;5049639;28;20302;-64
2021/01/20 10:55:52;;;;;;;5.50;2.50;;;7.00;99.90;;;;;;5034526;28;20521;-65
2021/01/20 10:58:18;;;;;;;4.33;2.10;;;7.00;99.90;;;;;;5035826;28;20581;-66
2021/01/20 11:00:47;;;;;;;7.00;2.03;;;6.90;99.90;;;;;;5053791;28;20589;-65
2021/01/20 11:03:13;;;;;;;4.80;2.10;;;7.10;99.90;;;;;;5053619;28;20194;-67
2021/01/20 11:05:39;;;;;;;6.73;1.80;;;7.20;99.90;;;;;;5053764;28;20424;-64
2021/01/20 11:08:05;;;;;;;4.40;1.97;;;7.30;99.90;;;;;;5053479;28;20533;-66
2021/01/20 11:10:31;;;;;;;5.13;1.60;;;7.40;99.90;;;;;;5048050;28;20421;-65
2021/01/20 11:12:56;;;;;;;2.33;1.80;;;7.40;99.90;;;;;;5045238;28;20633;-64
2021/01/20 11:15:22;;;;;;;3.80;1.87;;;7.50;99.90;;;;;;5053314;28;20538;-66
2021/01/20 11:17:49;;;;;;;9.23;2.27;;;7.60;99.90;;;;;;5053595;28;20171;-65
2021/01/20 11:20:16;;;;;;;5.07;1.53;;;7.70;99.90;;;;;;5052599;28;20175;-66
2021/01/20 11:22:41;;;;;;;1.50;1.30;;;7.80;99.90;;;;;;5041255;28;20410;-68
2021/01/20 11:25:08;;;;;;;4.70;1.93;;;7.90;99.90;;;;;;5037735;28;20414;-65
2021/01/20 11:27:34;;;;;;;2.47;1.60;;;8.00;99.90;;;;;;5044879;28;20503;-66
2021/01/20 11:29:59;;;;;;;4.60;1.43;;;8.10;99.40;;;;;;5053275;28;20429;-65
2021/01/20 11:32:25;;;;;;;3.40;1.57;;;8.20;98.70;;;;;;5052930;28;20741;-66
2021/01/20 11:34:50;;;;;;;3.73;1.30;;;8.30;99.30;;;;;;5053205;28;20210;-64
2021/01/20 11:37:16;;;;;;;3.20;1.83;;;8.40;99.80;;;;;;5053036;28;20179;-64
2021/01/20 11:39:42;;;;;;;1.77;1.27;;;8.40;98.50;;;;;;5050956;28;20221;-64
2021/01/20 11:42:07;;;;;;;3.20;1.53;;;8.50;98.60;;;;;;5038530;28;20179;-66
2021/01/20 11:44:35;;;;;;;3.53;1.63;;;8.60;99.10;;;;;;5040340;28;20190;-66
2021/01/20 11:47:02;;;;;;;4.00;1.50;;;8.70;98.60;;;;;;5052985;28;20183;-67
2021/01/20 11:49:28;;;;;;;3.87;1.57;;;8.80;99.70;;;;;;5052911;28;20453;-66
2021/01/20 11:51:54;;;;;;;3.33;1.70;;;8.90;96.80;;;;;;5053165;28;20442;-65
2021/01/20 11:54:19;;;;;;;3.03;1.37;;;9.20;97.10;;;;;;5039182;28;20458;-66
2021/01/20 11:56:45;;;;;;;2.23;1.50;;;9.50;96.20;;;;;;5044598;28;20183;-64
2021/01/20 11:59:11;;;;;;;3.57;1.67;;;9.70;95.40;;;;;;5052825;28;20205;-66
2021/01/20 12:01:36;;;;;;;2.50;1.33;;;10.00;94.80;;;;;;5052952;28;20203;-65
2021/01/20 12:04:03;;;;;;;3.23;1.80;;;10.10;94.30;;;;;;5052622;28;20202;-65
2021/01/20 12:06:29;;;;;;;3.77;1.30;;;10.20;92.70;;;;;;5052731;28;20167;-66
2021/01/20 12:08:55;;;;;;;2.33;1.47;;;10.20;92.70;;;;;;5052091;28;20865;-65
2021/01/20 12:11:24;;;;;;;3.13;1.40;;;10.10;93.70;;;;;;5041413;28;20246;-66
2021/01/20 12:13:50;;;;;;;4.50;1.70;;;10.00;93.80;;;;;;5052386;28;20173;-66
2021/01/20 12:16:16;;;;;;;3.50;1.80;;;10.10;94.50;;;;;;5049549;28;20253;-65
2021/01/20 12:18:41;;;;;;;3.73;2.07;;;10.10;95.70;;;;;;5052467;28;20232;-66
2021/01/20 12:21:07;;;;;;;4.63;2.00;;;10.10;93.20;;;;;;5052546;28;20182;-66
2021/01/20 12:23:33;;;;;;;2.23;1.10;;;10.00;93.20;;;;;;5035633;28;20258;-65
2021/01/20 12:25:58;;;;;;;3.07;1.63;;;10.00;93.30;;;;;;5039812;28;20184;-66
2021/01/20 12:28:24;;;;;;;3.50;1.73;;;10.00;93.60;;;;;;5035071;28;20200;-65
2021/01/20 12:30:50;;;;;;;2.50;1.90;;;9.80;93.20;;;;;;5046197;28;20626;-65
2021/01/20 12:33:16;;;;;;;2.37;1.97;;;9.80;93.50;;;;;;5040437;28;20206;-65
2021/01/20 12:35:41;;;;;;;2.30;1.83;;;9.70;94.60;;;;;;5032215;28;20686;-63
2021/01/20 12:38:07;;;;;;;5.73;2.00;;;9.60;94.50;;;;;;5039078;28;20185;-66
2021/01/20 12:40:33;;;;;;;3.57;1.80;;;9.60;94.50;;;;;;5051810;28;20222;-65
2021/01/20 12:42:58;;;;;;;2.83;1.80;;;9.50;94.90;;;;;;5051765;28;20182;-66
2021/01/20 12:45:24;;;;;;;3.70;2.00;;;9.50;94.70;;;;;;5051502;28;20236;-66
2021/01/20 12:47:50;;;;;;;3.07;2.20;;;9.60;95.30;;;;;;5051613;28;20629;-64
2021/01/20 12:50:15;;;;;;;3.80;1.90;;;9.60;96.10;;;;;;5051587;28;20202;-65
2021/01/20 12:52:41;;;;;;;4.50;1.80;;;9.50;95.70;;;;;;5051656;28;20190;-66
2021/01/20 12:55:08;;;;;;;3.83;2.10;;;9.60;94.70;;;;;;5051083;28;20218;-66
2021/01/20 12:57:33;;;;;;;3.43;2.00;;;9.50;95.00;;;;;;5051479;28;20421;-66
2021/01/20 12:59:59;;;;;;;4.10;2.03;;;9.50;96.10;;;;;;5051373;28;20185;-64